Time;durP1;ratioP1;P1;durP2;ratioP2;P2;SDS_P1;SDS_P2;PMS_P1;PMS_P2;Temp;Humidity;BMP_temperature;BMP_pressure;BME280_temperature;BME280_humidity;BME280_pressure;Samples;Min_cycle;Max_cycle;Signal;HPM_P1;HPM_P2
2023/07/20 00:00:53;;;;;;;6.43;5.57;;;;;;;;;;2520031;23;20433;-94
2023/07/20 00:01:53;;;;;;;8.10;5.65;;;;;;;;;;2524448;23;20073;-94
2023/07/20 00:03:10;;;;;;;6.50;5.80;;;;;;;;;;2537118;23;20018;-94
2023/07/20 00:04:11;;;;;;;7.68;5.32;;;;;;;;;;2537073;23;20540;-94
2023/07/20 00:05:13;;;;;;;6.57;5.88;;;;;;;;;;2536621;23;19997;-94
2023/07/20 00:06:13;;;;;;;6.82;5.90;;;;;;;;;;2520216;23;20145;-93
2023/07/20 00:07:14;;;;;;;9.93;5.93;;;;;;;;;;2524250;23;19999;-94
2023/07/20 00:08:15;;;;;;;6.47;5.28;;;;;;;;;;2519950;23;20145;-94
2023/07/20 00:09:15;;;;;;;10.35;5.70;;;;;;;;;;2524329;23;20002;-94
2023/07/20 00:10:16;;;;;;;8.88;5.88;;;;;;;;;;2520068;23;19994;-93
2023/07/20 00:11:16;;;;;;;7.40;5.78;;;;;;;;;;2523947;23;19995;-93
2023/07/20 00:12:17;;;;;;;6.68;5.53;;;;;;;;;;2520540;23;20003;-93
2023/07/20 00:13:19;;;;;;;10.23;6.20;;;;;;;;;;2508777;23;20014;-94
2023/07/20 00:14:19;;;;;;;7.95;5.57;;;;;;;;;;2521047;23;20526;-94
2023/07/20 00:15:20;;;;;;;6.45;5.70;;;;;;;;;;2521233;23;20062;-95
2023/07/20 00:16:20;;;;;;;8.02;5.75;;;;;;;;;;2524789;23;20077;-94
2023/07/20 00:17:21;;;;;;;7.97;5.93;;;;;;;;;;2520785;23;20037;-95
2023/07/20 00:18:21;;;;;;;9.30;6.10;;;;;;;;;;2521068;23;20006;-92
2023/07/20 00:19:26;;;;;;;9.75;5.95;;;;;;;;;;2537165;23;20005;-95
2023/07/20 00:20:26;;;;;;;8.63;5.88;;;;;;;;;;2520692;23;20527;-93
2023/07/20 00:21:27;;;;;;;11.75;6.03;;;;;;;;;;2524933;23;20001;-94
2023/07/20 00:22:27;;;;;;;8.68;5.63;;;;;;;;;;2532754;23;20073;-94
2023/07/20 00:23:28;;;;;;;6.18;5.55;;;;;;;;;;2520796;23;20010;-94
2023/07/20 00:24:28;;;;;;;7.22;6.00;;;;;;;;;;2520851;23;20407;-93
2023/07/20 00:25:29;;;;;;;7.22;5.28;;;;;;;;;;2520729;23;20073;-95
2023/07/20 00:26:29;;;;;;;6.75;6.07;;;;;;;;;;2508711;23;20001;-93
2023/07/20 00:27:30;;;;;;;6.03;5.43;;;;;;;;;;2508608;23;20018;-93
2023/07/20 00:28:30;;;;;;;7.28;6.15;;;;;;;;;;2524913;23;20073;-94
2023/07/20 00:29:31;;;;;;;8.95;6.00;;;;;;;;;;2521226;23;20344;-94
2023/07/20 00:30:31;;;;;;;9.38;5.72;;;;;;;;;;2524950;23;20010;-94
2023/07/20 00:31:32;;;;;;;9.95;6.15;;;;;;;;;;2520682;23;20428;-93
2023/07/20 00:32:32;;;;;;;9.23;6.32;;;;;;;;;;2508494;23;20018;-93
2023/07/20 00:33:33;;;;;;;8.90;6.00;;;;;;;;;;2520613;23;20002;-94
2023/07/20 00:34:34;;;;;;;7.63;6.15;;;;;;;;;;2520850;23;19998;-93
2023/07/20 00:35:34;;;;;;;9.05;5.85;;;;;;;;;;2509019;23;20121;-93
2023/07/20 00:36:35;;;;;;;7.88;5.78;;;;;;;;;;2520639;23;20586;-92
2023/07/20 00:37:35;;;;;;;9.40;6.15;;;;;;;;;;2524873;23;20012;-92
2023/07/20 00:38:35;;;;;;;8.55;5.72;;;;;;;;;;2537729;23;19990;-92
2023/07/20 00:39:36;;;;;;;8.85;6.55;;;;;;;;;;2532742;23;19990;-93
2023/07/20 00:40:37;;;;;;;7.15;5.60;;;;;;;;;;2092335;23;10179479;-92
2023/07/20 00:41:38;;;;;;;7.95;6.15;;;;;;;;;;2508499;23;19999;-93
2023/07/20 00:42:39;;;;;;;9.10;5.88;;;;;;;;;;2524817;23;20421;-93
2023/07/20 00:43:39;;;;;;;10.32;5.78;;;;;;;;;;2532633;23;19993;-94
2023/07/20 00:44:40;;;;;;;8.75;6.47;;;;;;;;;;2532743;23;20038;-94
2023/07/20 00:45:40;;;;;;;9.20;6.07;;;;;;;;;;2536772;23;19993;-92
2023/07/20 00:46:41;;;;;;;8.88;5.75;;;;;;;;;;2520581;23;20055;-94
2023/07/20 00:47:42;;;;;;;16.00;6.50;;;;;;;;;;2508755;23;20482;-92
2023/07/20 00:48:42;;;;;;;7.60;6.30;;;;;;;;;;2520237;23;20036;-92
2023/07/20 00:49:43;;;;;;;7.63;5.78;;;;;;;;;;2508598;23;20077;-92
2023/07/20 00:50:46;;;;;;;7.45;5.90;;;;;;;;;;2524720;23;20024;-92
2023/07/20 00:51:48;;;;;;;11.00;6.47;;;;;;;;;;2520596;23;20000;-91
2023/07/20 00:52:48;;;;;;;7.07;5.85;;;;;;;;;;2520278;23;20014;-92
2023/07/20 00:53:49;;;;;;;7.45;5.70;;;;;;;;;;2508686;23;20123;-92
2023/07/20 00:54:51;;;;;;;7.28;5.63;;;;;;;;;;2524742;23;20002;-92
2023/07/20 00:55:55;;;;;;;7.80;5.32;;;;;;;;;;2537376;23;20022;-93
2023/07/20 00:56:55;;;;;;;8.88;6.07;;;;;;;;;;2520345;23;20189;-93
2023/07/20 00:57:56;;;;;;;9.02;5.85;;;;;;;;;;2524824;23;20043;-95
2023/07/20 00:58:57;;;;;;;9.20;5.75;;;;;;;;;;2537794;23;20016;-95
2023/07/20 00:59:58;;;;;;;9.02;5.70;;;;;;;;;;2520353;23;20404;-93
2023/07/20 01:00:58;;;;;;;6.85;5.22;;;;;;;;;;2524627;23;20089;-93
2023/07/20 01:01:59;;;;;;;8.38;5.72;;;;;;;;;;2520614;23;20595;-93
2023/07/20 01:02:59;;;;;;;7.10;5.80;;;;;;;;;;2508675;23;19995;-94
2023/07/20 01:04:00;;;;;;;10.65;5.68;;;;;;;;;;2520493;23;20010;-94
2023/07/20 01:05:00;;;;;;;8.57;5.35;;;;;;;;;;2508528;23;20050;-93
2023/07/20 01:06:03;;;;;;;7.75;5.28;;;;;;;;;;2525498;23;19998;-94
2023/07/20 01:07:10;;;;;;;10.43;5.28;;;;;;;;;;2522802;23;20417;-94
2023/07/20 01:08:13;;;;;;;10.95;6.30;;;;;;;;;;2526108;23;20010;-95
2023/07/20 01:09:28;;;;;;;5.45;4.90;;;;;;;;;;2520275;23;20085;-95
2023/07/20 01:10:39;;;;;;;9.48;5.75;;;;;;;;;;2523977;23;20006;-93
2023/07/20 01:11:56;;;;;;;8.77;5.03;;;;;;;;;;2537542;23;20356;-93
2023/07/20 01:12:57;;;;;;;7.70;6.32;;;;;;;;;;2520851;23;20009;-93
2023/07/20 01:13:59;;;;;;;12.35;6.15;;;;;;;;;;2508715;23;20006;-93
2023/07/20 01:15:00;;;;;;;9.15;6.00;;;;;;;;;;2508717;23;20043;-95
2023/07/20 01:16:01;;;;;;;6.97;5.78;;;;;;;;;;2520273;23;20069;-93
2023/07/20 01:17:02;;;;;;;7.32;6.53;;;;;;;;;;2520314;23;19998;-94
2023/07/20 01:18:04;;;;;;;9.68;6.55;;;;;;;;;;2520178;23;20326;-94
2023/07/20 01:19:05;;;;;;;8.40;6.28;;;;;;;;;;2520410;23;20018;-93
2023/07/20 01:20:09;;;;;;;11.05;6.78;;;;;;;;;;2520566;23;20041;-94
2023/07/20 01:21:18;;;;;;;11.10;6.60;;;;;;;;;;2520338;23;20069;-93
2023/07/20 01:22:59;;;;;;;9.88;6.65;;;;;;;;;;2510347;23;19998;-93
2023/07/20 01:24:16;;;;;;;9.10;6.00;;;;;;;;;;2516424;23;20002;-94
2023/07/20 01:25:35;;;;;;;13.25;8.05;;;;;;;;;;2520379;23;20459;-94
2023/07/20 01:27:01;;;;;;;10.75;6.28;;;;;;;;;;2511696;23;20003;-94
2023/07/20 01:28:10;;;;;;;10.25;5.90;;;;;;;;;;2513544;23;20423;-94
2023/07/20 01:29:11;;;;;;;10.10;6.90;;;;;;;;;;2510261;23;20015;-92
2023/07/20 01:30:29;;;;;;;7.75;5.55;;;;;;;;;;2508443;23;20406;-94
2023/07/20 01:31:35;;;;;;;10.93;5.55;;;;;;;;;;2520332;23;20258;-94
2023/07/20 01:32:39;;;;;;;9.27;5.35;;;;;;;;;;2509463;23;20023;-94
2023/07/20 01:33:41;;;;;;;8.68;6.13;;;;;;;;;;2520938;23;19997;-94
2023/07/20 01:34:42;;;;;;;7.82;5.35;;;;;;;;;;2535473;23;19996;-95
2023/07/20 01:35:44;;;;;;;14.55;6.50;;;;;;;;;;2537288;23;20055;-94
2023/07/20 01:36:46;;;;;;;6.60;5.80;;;;;;;;;;2520121;23;20041;-94
2023/07/20 01:37:47;;;;;;;13.70;6.30;;;;;;;;;;2508487;23;20134;-93
2023/07/20 01:38:48;;;;;;;7.70;5.47;;;;;;;;;;2501062;23;19991;-93
2023/07/20 01:39:49;;;;;;;13.23;5.85;;;;;;;;;;2520236;23;20050;-93
2023/07/20 01:40:50;;;;;;;8.60;5.57;;;;;;;;;;2532373;23;19997;-95
2023/07/20 01:41:51;;;;;;;11.10;5.63;;;;;;;;;;2520126;23;19998;-93
2023/07/20 01:42:52;;;;;;;8.57;5.25;;;;;;;;;;2514104;23;20049;-94
2023/07/20 01:43:53;;;;;;;9.80;5.68;;;;;;;;;;2520799;23;20025;-93
2023/07/20 01:44:53;;;;;;;10.90;5.88;;;;;;;;;;2520853;23;20021;-93
2023/07/20 01:45:54;;;;;;;7.22;5.40;;;;;;;;;;2538705;23;20021;-93
2023/07/20 01:46:54;;;;;;;10.85;5.53;;;;;;;;;;2529111;23;20013;-92
2023/07/20 01:47:55;;;;;;;8.55;5.85;;;;;;;;;;2527757;23;20054;-94
2023/07/20 01:48:55;;;;;;;9.52;5.88;;;;;;;;;;2524540;23;20455;-94
2023/07/20 01:49:56;;;;;;;9.25;6.07;;;;;;;;;;2532388;23;20037;-93
2023/07/20 01:50:56;;;;;;;9.00;5.85;;;;;;;;;;2520537;23;19998;-94
2023/07/20 01:51:57;;;;;;;10.88;6.35;;;;;;;;;;2508435;23;19994;-95
2023/07/20 01:52:57;;;;;;;8.00;5.88;;;;;;;;;;2508559;23;20038;-93
2023/07/20 01:53:58;;;;;;;9.25;5.60;;;;;;;;;;2525232;23;20146;-93
2023/07/20 01:54:58;;;;;;;12.38;5.95;;;;;;;;;;2540337;23;19994;-93
2023/07/20 01:55:59;;;;;;;7.45;6.00;;;;;;;;;;2520636;23;20072;-94
2023/07/20 01:56:59;;;;;;;10.10;5.78;;;;;;;;;;2520163;23;20060;-94
2023/07/20 01:58:00;;;;;;;10.13;5.87;;;;;;;;;;2099298;23;10002107;-93
2023/07/20 01:59:01;;;;;;;7.22;5.68;;;;;;;;;;2524478;23;20026;-94
2023/07/20 02:00:02;;;;;;;6.85;5.40;;;;;;;;;;2532261;23;20073;-94
2023/07/20 02:01:02;;;;;;;13.05;5.90;;;;;;;;;;2520255;23;20022;-94
2023/07/20 02:02:03;;;;;;;7.60;5.35;;;;;;;;;;2508998;23;20015;-94
2023/07/20 02:03:04;;;;;;;7.97;5.95;;;;;;;;;;2522729;23;20036;-94
2023/07/20 02:04:04;;;;;;;7.35;5.07;;;;;;;;;;2508305;23;20113;-94
2023/07/20 02:05:05;;;;;;;8.20;5.97;;;;;;;;;;2496570;23;19999;-94
2023/07/20 02:06:11;;;;;;;9.57;5.85;;;;;;;;;;2512421;23;20013;-94
2023/07/20 02:07:11;;;;;;;6.03;5.38;;;;;;;;;;2525146;23;19994;-94
2023/07/20 02:08:12;;;;;;;12.13;5.63;;;;;;;;;;2525085;23;20018;-95
2023/07/20 02:09:12;;;;;;;8.48;5.70;;;;;;;;;;2508214;23;20066;-94
2023/07/20 02:10:13;;;;;;;10.38;6.50;;;;;;;;;;2496621;23;20006;-94
2023/07/20 02:11:13;;;;;;;7.32;5.97;;;;;;;;;;2496251;23;20404;-93
2023/07/20 02:12:14;;;;;;;8.55;6.10;;;;;;;;;;2512869;23;20125;-93
2023/07/20 02:13:14;;;;;;;10.43;6.30;;;;;;;;;;2508337;23;20001;-94
2023/07/20 02:14:15;;;;;;;9.48;5.80;;;;;;;;;;2508191;23;20115;-94
2023/07/20 02:15:18;;;;;;;9.02;5.63;;;;;;;;;;2508478;23;20047;-94
2023/07/20 02:16:19;;;;;;;7.18;6.10;;;;;;;;;;2508751;23;20014;-94
2023/07/20 02:17:19;;;;;;;8.15;5.22;;;;;;;;;;2512512;23;19994;-93
2023/07/20 02:18:20;;;;;;;12.07;5.72;;;;;;;;;;2524877;23;20010;-93
2023/07/20 02:19:21;;;;;;;10.82;5.80;;;;;;;;;;2508285;23;20478;-93
2023/07/20 02:20:21;;;;;;;9.85;6.03;;;;;;;;;;2076610;23;10297717;-93
2023/07/20 02:21:22;;;;;;;8.35;5.88;;;;;;;;;;2512377;23;19995;-93
2023/07/20 02:22:23;;;;;;;8.27;5.63;;;;;;;;;;2507177;23;20006;-93
2023/07/20 02:23:24;;;;;;;7.00;5.82;;;;;;;;;;2508377;23;19995;-94
2023/07/20 02:24:25;;;;;;;9.57;5.88;;;;;;;;;;2508351;23;20026;-93
2023/07/20 02:25:26;;;;;;;6.93;5.13;;;;;;;;;;2496591;23;19999;-94
2023/07/20 02:26:26;;;;;;;7.45;5.43;;;;;;;;;;2496125;23;20452;-94
2023/07/20 02:27:26;;;;;;;7.63;6.13;;;;;;;;;;2496481;23;20398;-93
2023/07/20 02:28:27;;;;;;;7.93;5.68;;;;;;;;;;2495951;23;20363;-92
2023/07/20 02:29:27;;;;;;;10.27;5.90;;;;;;;;;;2511882;23;19991;-94
2023/07/20 02:30:28;;;;;;;8.07;6.00;;;;;;;;;;2508183;23;20050;-94
2023/07/20 02:31:28;;;;;;;8.48;5.82;;;;;;;;;;2512215;23;20421;-92
2023/07/20 02:32:31;;;;;;;7.03;5.45;;;;;;;;;;2507810;23;20002;-93
2023/07/20 02:33:34;;;;;;;8.57;5.80;;;;;;;;;;2496881;23;19995;-93
2023/07/20 02:34:35;;;;;;;6.32;5.70;;;;;;;;;;2496592;23;19995;-94
2023/07/20 02:35:35;;;;;;;8.73;6.07;;;;;;;;;;2508545;23;20049;-95
2023/07/20 02:36:38;;;;;;;8.48;5.95;;;;;;;;;;2520511;23;20006;-94
2023/07/20 02:37:38;;;;;;;7.22;6.10;;;;;;;;;;2524259;23;19994;-94
2023/07/20 02:38:39;;;;;;;8.23;5.68;;;;;;;;;;2508203;23;19991;-94
2023/07/20 02:39:42;;;;;;;10.20;6.45;;;;;;;;;;2496370;23;20062;-94
2023/07/20 02:40:42;;;;;;;8.27;5.47;;;;;;;;;;2512678;23;19991;-93
2023/07/20 02:41:43;;;;;;;8.02;6.25;;;;;;;;;;2508754;23;20131;-93
2023/07/20 02:42:43;;;;;;;8.95;5.85;;;;;;;;;;2498895;23;20417;-92
2023/07/20 02:43:44;;;;;;;21.50;6.75;;;;;;;;;;2509632;23;20122;-94
2023/07/20 02:44:44;;;;;;;22.65;6.97;;;;;;;;;;2524188;23;20061;-93
2023/07/20 02:45:45;;;;;;;18.35;7.55;;;;;;;;;;2508263;23;20007;-94
2023/07/20 02:46:46;;;;;;;14.63;5.95;;;;;;;;;;2508566;23;20011;-93
2023/07/20 02:47:46;;;;;;;7.65;6.28;;;;;;;;;;2508135;23;20418;-94
2023/07/20 02:48:47;;;;;;;10.25;6.32;;;;;;;;;;2508102;23;20417;-94
2023/07/20 02:49:47;;;;;;;9.32;5.68;;;;;;;;;;2508104;23;20200;-93
2023/07/20 02:50:48;;;;;;;9.73;6.22;;;;;;;;;;2496209;23;20086;-93
2023/07/20 02:51:48;;;;;;;8.65;6.15;;;;;;;;;;2496349;23;20078;-94
2023/07/20 02:52:50;;;;;;;10.40;6.45;;;;;;;;;;2512406;23;20356;-94
2023/07/20 02:53:50;;;;;;;10.88;6.15;;;;;;;;;;2520176;23;20462;-94
2023/07/20 02:54:51;;;;;;;9.18;6.13;;;;;;;;;;2508193;23;19995;-94
2023/07/20 02:55:51;;;;;;;10.77;7.30;;;;;;;;;;2496367;23;19999;-94
2023/07/20 02:56:52;;;;;;;7.72;6.53;;;;;;;;;;2507944;23;19998;-94
2023/07/20 02:57:52;;;;;;;11.57;5.88;;;;;;;;;;2510511;23;19995;-94
2023/07/20 02:58:53;;;;;;;6.82;5.97;;;;;;;;;;2520160;23;20002;-93
2023/07/20 02:59:55;;;;;;;12.90;6.70;;;;;;;;;;2524230;23;20040;-94
2023/07/20 03:00:55;;;;;;;8.23;6.03;;;;;;;;;;2508135;23;20070;-91
2023/07/20 03:01:57;;;;;;;7.68;6.10;;;;;;;;;;2512380;23;20006;-94
2023/07/20 03:02:57;;;;;;;9.20;6.63;;;;;;;;;;2508105;23;19998;-93
2023/07/20 03:03:58;;;;;;;8.77;6.75;;;;;;;;;;2496230;23;20449;-92
2023/07/20 03:05:12;;;;;;;6.95;5.38;;;;;;;;;;268524;23;10001589;-93
2023/07/20 03:06:16;;;;;;;7.95;6.25;;;;;;;;;;1477524;23;10000850;-94
2023/07/20 03:07:16;;;;;;;6.72;6.00;;;;;;;;;;2530515;23;20024;-94
2023/07/20 03:08:17;;;;;;;7.90;6.53;;;;;;;;;;2532194;23;20464;-94
2023/07/20 03:09:17;;;;;;;12.38;6.78;;;;;;;;;;2548609;23;20438;-94
2023/07/20 03:10:18;;;;;;;8.75;6.72;;;;;;;;;;2549242;23;19994;-93
2023/07/20 03:11:19;;;;;;;10.40;7.30;;;;;;;;;;2531892;23;20058;-93
2023/07/20 03:12:20;;;;;;;9.02;6.57;;;;;;;;;;2536303;23;20002;-93
2023/07/20 03:13:20;;;;;;;7.82;6.00;;;;;;;;;;2532094;23;20385;-94
2023/07/20 03:14:20;;;;;;;8.38;6.38;;;;;;;;;;2519990;23;20002;-94
2023/07/20 03:15:21;;;;;;;8.60;6.80;;;;;;;;;;2536369;23;20410;-94
2023/07/20 03:16:24;;;;;;;9.07;6.68;;;;;;;;;;2531987;23;20067;-93
2023/07/20 03:17:25;;;;;;;7.95;7.03;;;;;;;;;;2532046;23;19994;-93
2023/07/20 03:18:26;;;;;;;7.85;6.03;;;;;;;;;;2532067;23;20001;-94
2023/07/20 03:19:27;;;;;;;11.30;6.32;;;;;;;;;;2531806;23;20237;-93
2023/07/20 03:20:31;;;;;;;8.50;6.13;;;;;;;;;;2536332;23;20380;-93
2023/07/20 03:21:31;;;;;;;7.57;6.50;;;;;;;;;;2549304;23;19993;-94
2023/07/20 03:22:33;;;;;;;9.52;6.28;;;;;;;;;;2549196;23;20446;-94
2023/07/20 03:23:33;;;;;;;10.30;6.63;;;;;;;;;;2532208;23;20496;-93
2023/07/20 03:24:33;;;;;;;9.88;6.65;;;;;;;;;;2519908;23;19995;-93
2023/07/20 03:25:34;;;;;;;10.73;6.88;;;;;;;;;;2519709;23;19991;-95
2023/07/20 03:26:35;;;;;;;10.35;6.40;;;;;;;;;;2519965;23;19998;-93
2023/07/20 03:27:35;;;;;;;13.90;7.47;;;;;;;;;;2532127;23;20073;-92
2023/07/20 03:28:42;;;;;;;8.55;6.20;;;;;;;;;;2532191;23;20013;-95
2023/07/20 03:29:42;;;;;;;8.98;6.85;;;;;;;;;;2521151;23;19995;-92
2023/07/20 03:30:42;;;;;;;9.60;6.68;;;;;;;;;;2532926;23;20065;-92
2023/07/20 03:31:43;;;;;;;9.10;6.18;;;;;;;;;;2532092;23;20026;-92
2023/07/20 03:32:43;;;;;;;9.32;6.68;;;;;;;;;;2532170;23;19993;-93
2023/07/20 03:33:44;;;;;;;9.27;7.28;;;;;;;;;;2532153;23;20048;-93
2023/07/20 03:34:44;;;;;;;13.82;7.00;;;;;;;;;;2544606;23;20020;-93
2023/07/20 03:35:45;;;;;;;10.82;6.72;;;;;;;;;;2520446;23;20563;-93
2023/07/20 03:36:45;;;;;;;8.60;6.32;;;;;;;;;;2519962;23;20495;-92
2023/07/20 03:37:46;;;;;;;9.32;6.97;;;;;;;;;;2536523;23;20002;-90
2023/07/20 03:38:46;;;;;;;9.32;6.45;;;;;;;;;;2106255;23;10078502;-94
2023/07/20 03:39:47;;;;;;;11.00;6.80;;;;;;;;;;2521922;23;20009;-94
2023/07/20 03:40:55;;;;;;;9.52;6.68;;;;;;;;;;2538147;23;20002;-93
2023/07/20 03:41:57;;;;;;;11.20;6.55;;;;;;;;;;2524317;23;20006;-92
2023/07/20 03:42:57;;;;;;;7.88;6.32;;;;;;;;;;2536813;23;20000;-93
2023/07/20 03:43:58;;;;;;;7.55;6.55;;;;;;;;;;2549950;23;20450;-93
2023/07/20 03:44:58;;;;;;;8.93;6.40;;;;;;;;;;2549756;23;20055;-92
2023/07/20 03:45:59;;;;;;;8.68;6.47;;;;;;;;;;2549249;23;20399;-93
2023/07/20 03:46:59;;;;;;;10.13;6.80;;;;;;;;;;2532684;23;20136;-92
2023/07/20 03:48:00;;;;;;;7.57;6.43;;;;;;;;;;2537278;23;20053;-93
2023/07/20 03:49:00;;;;;;;11.43;7.57;;;;;;;;;;2533466;23;20005;-93
2023/07/20 03:50:01;;;;;;;9.98;7.43;;;;;;;;;;2532890;23;20428;-93
2023/07/20 03:51:01;;;;;;;12.70;7.57;;;;;;;;;;2549199;23;20396;-92
2023/07/20 03:52:05;;;;;;;10.65;7.57;;;;;;;;;;2550367;23;20005;-93
2023/07/20 03:53:05;;;;;;;11.50;7.32;;;;;;;;;;2549955;23;20007;-94
2023/07/20 03:54:06;;;;;;;10.00;7.25;;;;;;;;;;2547130;23;20025;-94
2023/07/20 03:55:07;;;;;;;12.85;7.00;;;;;;;;;;2550115;23;20039;-94
2023/07/20 03:56:07;;;;;;;11.45;7.43;;;;;;;;;;2549856;23;20024;-93
2023/07/20 03:57:09;;;;;;;14.43;7.15;;;;;;;;;;2549979;23;20016;-94
2023/07/20 03:58:10;;;;;;;10.60;7.00;;;;;;;;;;2532798;23;20108;-94
2023/07/20 03:59:10;;;;;;;11.30;7.35;;;;;;;;;;2520995;23;19998;-94
2023/07/20 04:00:12;;;;;;;13.77;7.70;;;;;;;;;;2520597;23;20375;-93
2023/07/20 04:01:13;;;;;;;9.07;6.90;;;;;;;;;;2521431;23;19998;-94
2023/07/20 04:02:13;;;;;;;10.98;6.63;;;;;;;;;;2544714;23;19993;-94
2023/07/20 04:03:14;;;;;;;12.23;7.55;;;;;;;;;;2545007;23;20034;-94
2023/07/20 04:04:16;;;;;;;12.35;6.93;;;;;;;;;;2545075;23;19994;-93
2023/07/20 04:05:16;;;;;;;7.53;6.45;;;;;;;;;;2533147;23;20006;-94
2023/07/20 04:06:17;;;;;;;12.60;6.75;;;;;;;;;;2544893;23;19997;-93
2023/07/20 04:07:18;;;;;;;9.30;6.80;;;;;;;;;;2545002;23;20052;-94
2023/07/20 04:08:18;;;;;;;9.48;6.97;;;;;;;;;;2549205;23;20051;-94
2023/07/20 04:09:19;;;;;;;11.40;7.25;;;;;;;;;;2544912;23;20427;-93
2023/07/20 04:10:19;;;;;;;8.65;6.47;;;;;;;;;;2532993;23;19994;-94
2023/07/20 04:11:20;;;;;;;10.57;7.20;;;;;;;;;;2544938;23;20461;-94
2023/07/20 04:12:20;;;;;;;9.35;6.88;;;;;;;;;;2557194;23;19996;-94
2023/07/20 04:13:21;;;;;;;12.13;7.30;;;;;;;;;;2532859;23;20016;-94
2023/07/20 04:14:22;;;;;;;13.02;6.90;;;;;;;;;;2549103;23;20347;-94
2023/07/20 04:15:22;;;;;;;11.65;7.47;;;;;;;;;;2544968;23;20004;-94
2023/07/20 04:16:23;;;;;;;9.18;7.00;;;;;;;;;;2532930;23;20077;-93
2023/07/20 04:17:23;;;;;;;10.13;8.38;;;;;;;;;;2532954;23;20077;-95
2023/07/20 04:18:23;;;;;;;11.77;6.88;;;;;;;;;;2546920;23;20473;-92
2023/07/20 04:19:24;;;;;;;10.85;7.45;;;;;;;;;;2545224;23;20080;-94
2023/07/20 04:20:24;;;;;;;13.63;7.45;;;;;;;;;;2548741;23;20021;-94
2023/07/20 04:21:27;;;;;;;8.70;6.68;;;;;;;;;;2557991;23;20001;-93
2023/07/20 04:22:27;;;;;;;9.77;6.65;;;;;;;;;;2544908;23;20028;-94
2023/07/20 04:23:28;;;;;;;12.13;6.70;;;;;;;;;;2532713;23;20001;-95
2023/07/20 04:24:28;;;;;;;17.38;8.68;;;;;;;;;;2533534;23;20001;-94
2023/07/20 04:25:29;;;;;;;9.52;6.70;;;;;;;;;;2532840;23;19998;-93
2023/07/20 04:26:29;;;;;;;10.07;6.57;;;;;;;;;;2549443;23;20021;-93
2023/07/20 04:27:30;;;;;;;12.85;6.97;;;;;;;;;;2544816;23;19997;-94
2023/07/20 04:28:33;;;;;;;10.52;7.30;;;;;;;;;;2549169;23;20052;-93
2023/07/20 04:29:34;;;;;;;10.32;6.82;;;;;;;;;;2544913;23;19993;-92
2023/07/20 04:30:39;;;;;;;11.05;6.50;;;;;;;;;;2545467;23;20140;-94
2023/07/20 04:31:40;;;;;;;9.80;7.03;;;;;;;;;;2545090;23;19997;-93
2023/07/20 04:32:45;;;;;;;9.30;6.45;;;;;;;;;;2532986;23;20005;-94
2023/07/20 04:33:46;;;;;;;8.93;6.90;;;;;;;;;;2549459;23;20093;-93
2023/07/20 04:34:46;;;;;;;10.13;6.75;;;;;;;;;;2533121;23;20061;-93
2023/07/20 04:35:54;;;;;;;12.05;8.55;;;;;;;;;;2533211;23;20055;-94
2023/07/20 04:36:54;;;;;;;11.57;9.35;;;;;;;;;;2550608;23;20024;-93
2023/07/20 04:37:54;;;;;;;13.40;9.35;;;;;;;;;;2563557;23;20010;-94
2023/07/20 04:38:55;;;;;;;13.93;10.23;;;;;;;;;;2545043;23;20116;-94
2023/07/20 04:39:57;;;;;;;13.45;9.15;;;;;;;;;;2532871;23;20036;-94
2023/07/20 04:40:57;;;;;;;15.40;8.68;;;;;;;;;;2532798;23;19997;-94
2023/07/20 04:41:58;;;;;;;12.70;8.95;;;;;;;;;;2548391;23;20123;-93
2023/07/20 04:42:58;;;;;;;12.25;8.60;;;;;;;;;;2544821;23;19990;-95
2023/07/20 04:43:59;;;;;;;12.55;8.43;;;;;;;;;;2532504;23;20468;-94
2023/07/20 04:44:59;;;;;;;10.40;8.18;;;;;;;;;;2532570;23;19993;-95
2023/07/20 04:45:59;;;;;;;11.52;7.68;;;;;;;;;;2549068;23;20064;-94
2023/07/20 04:47:00;;;;;;;10.13;6.97;;;;;;;;;;2544806;23;19998;-94
2023/07/20 04:48:00;;;;;;;8.85;6.05;;;;;;;;;;2548765;23;20055;-94
2023/07/20 04:49:01;;;;;;;9.82;6.35;;;;;;;;;;2544588;23;20431;-94
2023/07/20 04:50:02;;;;;;;9.77;6.45;;;;;;;;;;2549044;23;20430;-94
2023/07/20 04:51:05;;;;;;;8.32;7.25;;;;;;;;;;2557157;23;20017;-94
2023/07/20 04:52:06;;;;;;;6.97;5.57;;;;;;;;;;2544437;23;20055;-94
2023/07/20 04:53:10;;;;;;;7.03;5.95;;;;;;;;;;2532588;23;20518;-96
2023/07/20 04:54:10;;;;;;;9.63;6.07;;;;;;;;;;2546220;23;20007;-94
2023/07/20 04:55:36;;;;;;;;;;;;;;;;;;;;;
2023/07/20 04:57:39;;;;;;;7.53;5.00;;;;;;;;;;2549117;23;20029;-94
2023/07/20 05:03:21;;;;;;;6.78;5.63;;;;;;;;;;2511862;23;20473;-93
2023/07/20 05:04:21;;;;;;;8.43;5.40;;;;;;;;;;2509201;23;20370;-93
2023/07/20 05:07:00;;;;;;;7.18;5.18;;;;;;;;;;2500578;23;20081;-94
2023/07/20 05:08:00;;;;;;;13.70;5.82;;;;;;;;;;2510668;23;20401;-94
2023/07/20 05:09:14;;;;;;;7.68;5.40;;;;;;;;;;2499208;23;20035;-94
2023/07/20 05:10:21;;;;;;;7.70;5.20;;;;;;;;;;2504351;23;20003;-93
2023/07/20 05:11:21;;;;;;;9.27;5.72;;;;;;;;;;2496588;23;20295;-94
2023/07/20 05:12:22;;;;;;;8.77;5.50;;;;;;;;;;2496368;23;20078;-93
2023/07/20 05:13:22;;;;;;;9.25;5.78;;;;;;;;;;2512344;23;19998;-94
2023/07/20 05:14:23;;;;;;;8.60;5.40;;;;;;;;;;2496365;23;20026;-94
2023/07/20 05:15:25;;;;;;;8.55;5.50;;;;;;;;;;2500355;23;20014;-93
2023/07/20 05:16:30;;;;;;;9.85;5.88;;;;;;;;;;2522661;23;20498;-93
2023/07/20 05:17:31;;;;;;;8.50;5.00;;;;;;;;;;2537312;23;20009;-94
2023/07/20 05:18:31;;;;;;;9.73;5.78;;;;;;;;;;2532627;23;20004;-93
2023/07/20 05:19:32;;;;;;;8.60;5.93;;;;;;;;;;2532392;23;19994;-95
2023/07/20 05:20:33;;;;;;;6.82;5.45;;;;;;;;;;2548874;23;20469;-94
2023/07/20 05:21:33;;;;;;;9.25;5.88;;;;;;;;;;2544552;23;20510;-93
2023/07/20 05:22:34;;;;;;;11.35;5.68;;;;;;;;;;2548708;23;20009;-93
2023/07/20 05:23:34;;;;;;;7.63;5.90;;;;;;;;;;2561979;23;19989;-94
2023/07/20 05:24:35;;;;;;;8.13;5.32;;;;;;;;;;2544478;23;20366;-95
2023/07/20 05:25:38;;;;;;;6.47;5.80;;;;;;;;;;2532542;23;19994;-94
2023/07/20 05:26:38;;;;;;;11.27;6.30;;;;;;;;;;2532871;23;20401;-94
2023/07/20 05:27:41;;;;;;;10.40;5.22;;;;;;;;;;2544497;23;20016;-94
2023/07/20 05:28:41;;;;;;;8.48;5.60;;;;;;;;;;2551731;23;20597;-93
2023/07/20 05:29:45;;;;;;;10.40;5.93;;;;;;;;;;2196188;23;10511745;-93
2023/07/20 05:30:46;;;;;;;12.50;6.50;;;;;;;;;;2533132;23;20204;-94
2023/07/20 05:31:46;;;;;;;9.27;6.53;;;;;;;;;;2532445;23;20009;-95
2023/07/20 05:32:50;;;;;;;10.32;5.50;;;;;;;;;;2536505;23;19998;-93
2023/07/20 05:33:51;;;;;;;8.95;5.50;;;;;;;;;;2560276;23;19993;-94
2023/07/20 05:34:52;;;;;;;6.82;5.60;;;;;;;;;;2544160;23;20001;-93
2023/07/20 05:35:53;;;;;;;10.77;5.65;;;;;;;;;;2533228;23;20005;-94
2023/07/20 05:36:53;;;;;;;9.05;5.65;;;;;;;;;;2550114;23;20024;-94
2023/07/20 05:37:54;;;;;;;12.88;6.32;;;;;;;;;;2556916;23;20001;-94
2023/07/20 05:38:54;;;;;;;10.20;5.93;;;;;;;;;;2563148;23;20011;-94
2023/07/20 05:39:55;;;;;;;10.98;6.40;;;;;;;;;;2545121;23;20013;-95
2023/07/20 05:41:00;;;;;;;11.73;6.18;;;;;;;;;;2532470;23;20041;-95
2023/07/20 05:42:00;;;;;;;14.88;6.68;;;;;;;;;;2545600;23;19997;-94
2023/07/20 05:43:01;;;;;;;10.38;6.20;;;;;;;;;;2544615;23;20006;-93
2023/07/20 05:44:01;;;;;;;9.32;6.63;;;;;;;;;;2546497;23;19994;-94
2023/07/20 05:45:04;;;;;;;12.23;6.60;;;;;;;;;;2544666;23;20033;-94
2023/07/20 05:46:05;;;;;;;9.18;6.32;;;;;;;;;;2533116;23;19994;-94
2023/07/20 05:47:05;;;;;;;10.48;6.45;;;;;;;;;;2532447;23;20009;-95
2023/07/20 05:48:06;;;;;;;7.07;5.20;;;;;;;;;;2548692;23;20099;-92
2023/07/20 05:49:06;;;;;;;11.75;6.20;;;;;;;;;;2557193;23;20005;-93
2023/07/20 05:50:07;;;;;;;12.57;6.43;;;;;;;;;;2544772;23;20043;-92
2023/07/20 05:51:08;;;;;;;12.30;5.97;;;;;;;;;;2549350;23;20013;-93
2023/07/20 05:52:08;;;;;;;11.90;6.22;;;;;;;;;;2562307;23;20061;-93
2023/07/20 05:53:09;;;;;;;9.60;6.05;;;;;;;;;;2546443;23;20104;-91
2023/07/20 05:54:09;;;;;;;12.55;6.55;;;;;;;;;;2533651;23;20452;-93
2023/07/20 05:55:10;;;;;;;9.60;6.70;;;;;;;;;;2548846;23;20024;-94
2023/07/20 05:56:10;;;;;;;9.10;6.35;;;;;;;;;;2544345;23;20008;-95
2023/07/20 05:57:11;;;;;;;8.23;6.13;;;;;;;;;;2548842;23;20327;-94
2023/07/20 05:58:11;;;;;;;10.63;6.38;;;;;;;;;;2545865;23;20001;-96
2023/07/20 05:59:11;;;;;;;7.75;5.65;;;;;;;;;;2548792;23;19989;-95
2023/07/20 06:00:12;;;;;;;7.60;6.20;;;;;;;;;;2544791;23;20428;-96
2023/07/20 06:01:13;;;;;;;6.78;5.43;;;;;;;;;;2548882;23;20427;-95
2023/07/20 06:02:13;;;;;;;7.95;5.57;;;;;;;;;;2544591;23;19993;-93
2023/07/20 06:03:21;;;;;;;7.97;5.78;;;;;;;;;;2532303;23;20053;-93
2023/07/20 06:04:21;;;;;;;6.72;5.60;;;;;;;;;;2545806;23;20029;-94
2023/07/20 06:05:23;;;;;;;8.38;5.63;;;;;;;;;;2544515;23;19993;-94
2023/07/20 06:06:23;;;;;;;6.68;5.95;;;;;;;;;;2532975;23;20491;-93
2023/07/20 06:07:24;;;;;;;9.88;6.53;;;;;;;;;;2532305;23;20078;-94
2023/07/20 06:08:24;;;;;;;8.45;6.35;;;;;;;;;;2549140;23;19997;-94
2023/07/20 06:09:27;;;;;;;6.85;6.10;;;;;;;;;;2561408;23;20004;-95
2023/07/20 06:10:27;;;;;;;6.70;5.88;;;;;;;;;;2544290;23;19994;-94
2023/07/20 06:11:28;;;;;;;8.05;5.40;;;;;;;;;;2544655;23;19995;-94
2023/07/20 06:12:28;;;;;;;7.07;5.47;;;;;;;;;;2548616;23;20069;-96
2023/07/20 06:13:28;;;;;;;6.07;5.28;;;;;;;;;;2544233;23;19990;-95
2023/07/20 06:14:29;;;;;;;8.38;5.55;;;;;;;;;;2532171;23;19994;-94
2023/07/20 06:15:35;;;;;;;7.78;5.60;;;;;;;;;;2548542;23;19993;-93